Gouldsboro, Maine
Current Conditions -  °F | °C
As of 4:15 AM on Wednesday 28 Jan 2015 (Local Time) from KBHB Reporting Station
Overcast Overcast  
Wind Chill: -3°   Ceiling: 1700
Heat Index: 12°   Visibility: 2.5mi
Dew Point: 12°   Wind: 13mph
Humidity: 100%   Direction: 360°N
Pressure: 29.61"   Gusts: 22mph
Location:  44.48°N, 68.04°W
Report Text: KBHB 280915Z 36011G19KT 2 1/2SM OVC017 M11/M11 A2961 RMK AO1 VIS 1 3/4V3
Loading
Personal Weather Stations






























Interactive Weather Map New forecast layout! Learn more

10-Day Weather Forecast

Advertisements
Track Severe Weather on mobile